sensor_id;sensor_type;location;lat;lon;timestamp;P1;durP1;ratioP1;P2;durP2;ratioP2
48613;SDS011;34408;51.426;5.444;2023-04-03T00:01:18;6.57;;;2.75;;
48613;SDS011;34408;51.426;5.444;2023-04-03T00:03:46;4.85;;;2.63;;
48613;SDS011;34408;51.426;5.444;2023-04-03T00:06:13;6.03;;;2.70;;
48613;SDS011;34408;51.426;5.444;2023-04-03T00:08:43;5.10;;;2.67;;
48613;SDS011;34408;51.426;5.444;2023-04-03T00:11:11;4.15;;;2.17;;
48613;SDS011;34408;51.426;5.444;2023-04-03T00:13:39;5.20;;;2.67;;
48613;SDS011;34408;51.426;5.444;2023-04-03T00:16:07;5.03;;;2.50;;
48613;SDS011;34408;51.426;5.444;2023-04-03T00:18:36;5.40;;;2.60;;
48613;SDS011;34408;51.426;5.444;2023-04-03T00:21:04;5.38;;;2.70;;
48613;SDS011;34408;51.426;5.444;2023-04-03T00:23:33;5.00;;;2.55;;
48613;SDS011;34408;51.426;5.444;2023-04-03T00:26:02;4.13;;;2.33;;
48613;SDS011;34408;51.426;5.444;2023-04-03T00:28:30;4.70;;;2.80;;
48613;SDS011;34408;51.426;5.444;2023-04-03T00:30:58;5.20;;;2.92;;
48613;SDS011;34408;51.426;5.444;2023-04-03T00:33:26;8.60;;;2.47;;
48613;SDS011;34408;51.426;5.444;2023-04-03T00:35:53;4.35;;;2.85;;
48613;SDS011;34408;51.426;5.444;2023-04-03T00:38:21;6.53;;;3.10;;
48613;SDS011;34408;51.426;5.444;2023-04-03T00:40:49;6.88;;;3.15;;
48613;SDS011;34408;51.426;5.444;2023-04-03T00:43:19;7.03;;;2.75;;
48613;SDS011;34408;51.426;5.444;2023-04-03T00:45:49;8.80;;;2.90;;
48613;SDS011;34408;51.426;5.444;2023-04-03T00:48:18;7.25;;;2.88;;
48613;SDS011;34408;51.426;5.444;2023-04-03T00:50:48;6.88;;;2.92;;
48613;SDS011;34408;51.426;5.444;2023-04-03T00:53:18;5.85;;;2.90;;
48613;SDS011;34408;51.426;5.444;2023-04-03T00:55:49;6.80;;;2.58;;
48613;SDS011;34408;51.426;5.444;2023-04-03T00:58:19;4.35;;;2.63;;
48613;SDS011;34408;51.426;5.444;2023-04-03T01:00:54;6.40;;;2.85;;
48613;SDS011;34408;51.426;5.444;2023-04-03T01:03:25;6.03;;;2.63;;
48613;SDS011;34408;51.426;5.444;2023-04-03T01:05:53;4.65;;;2.15;;
48613;SDS011;34408;51.426;5.444;2023-04-03T01:08:21;5.53;;;2.33;;
48613;SDS011;34408;51.426;5.444;2023-04-03T01:10:49;8.73;;;3.05;;
48613;SDS011;34408;51.426;5.444;2023-04-03T01:13:18;6.72;;;3.28;;
48613;SDS011;34408;51.426;5.444;2023-04-03T01:15:49;5.80;;;2.60;;
48613;SDS011;34408;51.426;5.444;2023-04-03T01:18:17;5.68;;;2.78;;
48613;SDS011;34408;51.426;5.444;2023-04-03T01:23:44;6.03;;;3.20;;
48613;SDS011;34408;51.426;5.444;2023-04-03T01:26:27;6.07;;;2.80;;
48613;SDS011;34408;51.426;5.444;2023-04-03T01:28:58;5.47;;;3.55;;
48613;SDS011;34408;51.426;5.444;2023-04-03T01:31:27;4.63;;;2.38;;
48613;SDS011;34408;51.426;5.444;2023-04-03T01:34:00;5.05;;;3.08;;
48613;SDS011;34408;51.426;5.444;2023-04-03T01:36:30;4.78;;;2.65;;
48613;SDS011;34408;51.426;5.444;2023-04-03T01:38:59;6.55;;;3.00;;
48613;SDS011;34408;51.426;5.444;2023-04-03T01:41:27;4.47;;;2.58;;
48613;SDS011;34408;51.426;5.444;2023-04-03T01:43:55;8.45;;;2.95;;
48613;SDS011;34408;51.426;5.444;2023-04-03T01:46:23;4.80;;;3.15;;
48613;SDS011;34408;51.426;5.444;2023-04-03T01:48:50;6.07;;;2.83;;
48613;SDS011;34408;51.426;5.444;2023-04-03T01:51:19;7.22;;;2.45;;
48613;SDS011;34408;51.426;5.444;2023-04-03T01:53:47;4.65;;;2.90;;
48613;SDS011;34408;51.426;5.444;2023-04-03T01:56:15;5.57;;;2.80;;
48613;SDS011;34408;51.426;5.444;2023-04-03T01:58:43;9.25;;;3.83;;
48613;SDS011;34408;51.426;5.444;2023-04-03T02:01:10;5.68;;;3.15;;
48613;SDS011;34408;51.426;5.444;2023-04-03T02:03:38;10.13;;;3.58;;
48613;SDS011;34408;51.426;5.444;2023-04-03T02:06:06;9.20;;;3.00;;
48613;SDS011;34408;51.426;5.444;2023-04-03T02:08:35;6.20;;;3.25;;
48613;SDS011;34408;51.426;5.444;2023-04-03T02:11:03;6.70;;;2.97;;
48613;SDS011;34408;51.426;5.444;2023-04-03T02:13:31;6.45;;;2.85;;
48613;SDS011;34408;51.426;5.444;2023-04-03T02:15:58;7.13;;;2.92;;
48613;SDS011;34408;51.426;5.444;2023-04-03T02:18:26;6.72;;;3.10;;
48613;SDS011;34408;51.426;5.444;2023-04-03T02:20:54;6.82;;;3.30;;
48613;SDS011;34408;51.426;5.444;2023-04-03T02:23:21;5.38;;;2.80;;
48613;SDS011;34408;51.426;5.444;2023-04-03T02:25:51;5.70;;;2.83;;
48613;SDS011;34408;51.426;5.444;2023-04-03T02:28:18;8.38;;;2.60;;
48613;SDS011;34408;51.426;5.444;2023-04-03T02:30:46;5.10;;;2.60;;
48613;SDS011;34408;51.426;5.444;2023-04-03T02:33:14;6.45;;;2.95;;
48613;SDS011;34408;51.426;5.444;2023-04-03T02:35:41;5.10;;;2.72;;
48613;SDS011;34408;51.426;5.444;2023-04-03T02:38:09;3.88;;;2.63;;
48613;SDS011;34408;51.426;5.444;2023-04-03T02:40:37;4.32;;;2.45;;
48613;SDS011;34408;51.426;5.444;2023-04-03T02:43:06;6.05;;;3.03;;
48613;SDS011;34408;51.426;5.444;2023-04-03T02:45:34;8.63;;;3.00;;
48613;SDS011;34408;51.426;5.444;2023-04-03T02:48:02;4.35;;;2.55;;
48613;SDS011;34408;51.426;5.444;2023-04-03T02:50:29;4.07;;;2.40;;
48613;SDS011;34408;51.426;5.444;2023-04-03T02:52:57;7.55;;;2.63;;
48613;SDS011;34408;51.426;5.444;2023-04-03T02:55:25;4.28;;;2.50;;
48613;SDS011;34408;51.426;5.444;2023-04-03T02:57:53;4.28;;;2.50;;
48613;SDS011;34408;51.426;5.444;2023-04-03T03:00:22;5.97;;;2.83;;
48613;SDS011;34408;51.426;5.444;2023-04-03T03:02:50;8.32;;;2.60;;
48613;SDS011;34408;51.426;5.444;2023-04-03T03:05:18;6.28;;;2.17;;
48613;SDS011;34408;51.426;5.444;2023-04-03T03:07:46;4.32;;;2.55;;
48613;SDS011;34408;51.426;5.444;2023-04-03T03:10:13;5.90;;;2.30;;
48613;SDS011;34408;51.426;5.444;2023-04-03T03:12:41;6.13;;;2.70;;
48613;SDS011;34408;51.426;5.444;2023-04-03T03:15:09;4.85;;;2.40;;
48613;SDS011;34408;51.426;5.444;2023-04-03T03:17:39;7.05;;;2.00;;
48613;SDS011;34408;51.426;5.444;2023-04-03T03:20:07;5.72;;;2.50;;
48613;SDS011;34408;51.426;5.444;2023-04-03T03:22:35;4.57;;;2.25;;
48613;SDS011;34408;51.426;5.444;2023-04-03T03:25:04;5.28;;;2.63;;
48613;SDS011;34408;51.426;5.444;2023-04-03T03:27:32;6.25;;;3.35;;
48613;SDS011;34408;51.426;5.444;2023-04-03T03:29:59;8.63;;;3.45;;
48613;SDS011;34408;51.426;5.444;2023-04-03T03:32:27;7.53;;;2.58;;
48613;SDS011;34408;51.426;5.444;2023-04-03T03:34:57;6.57;;;2.47;;
48613;SDS011;34408;51.426;5.444;2023-04-03T03:37:24;7.75;;;2.45;;
48613;SDS011;34408;51.426;5.444;2023-04-03T03:39:53;5.05;;;2.53;;
48613;SDS011;34408;51.426;5.444;2023-04-03T03:42:20;6.22;;;2.28;;
48613;SDS011;34408;51.426;5.444;2023-04-03T03:44:48;4.85;;;2.42;;
48613;SDS011;34408;51.426;5.444;2023-04-03T03:47:16;5.95;;;2.28;;
48613;SDS011;34408;51.426;5.444;2023-04-03T03:49:44;5.82;;;2.30;;
48613;SDS011;34408;51.426;5.444;2023-04-03T03:52:13;6.68;;;2.70;;
48613;SDS011;34408;51.426;5.444;2023-04-03T03:54:40;8.30;;;2.95;;
48613;SDS011;34408;51.426;5.444;2023-04-03T03:57:08;3.35;;;2.40;;
48613;SDS011;34408;51.426;5.444;2023-04-03T03:59:37;5.80;;;2.40;;
48613;SDS011;34408;51.426;5.444;2023-04-03T04:02:06;4.15;;;2.33;;
48613;SDS011;34408;51.426;5.444;2023-04-03T04:04:34;5.05;;;2.40;;
48613;SDS011;34408;51.426;5.444;2023-04-03T04:07:02;4.50;;;2.20;;
48613;SDS011;34408;51.426;5.444;2023-04-03T04:09:31;3.25;;;1.73;;
48613;SDS011;34408;51.426;5.444;2023-04-03T04:11:59;3.95;;;2.22;;
48613;SDS011;34408;51.426;5.444;2023-04-03T04:14:27;5.95;;;2.40;;
48613;SDS011;34408;51.426;5.444;2023-04-03T04:16:54;6.20;;;2.58;;
48613;SDS011;34408;51.426;5.444;2023-04-03T04:19:22;7.03;;;2.25;;
48613;SDS011;34408;51.426;5.444;2023-04-03T04:21:50;5.95;;;2.40;;
48613;SDS011;34408;51.426;5.444;2023-04-03T04:24:18;5.25;;;2.55;;
48613;SDS011;34408;51.426;5.444;2023-04-03T04:26:47;5.75;;;2.55;;
48613;SDS011;34408;51.426;5.444;2023-04-03T04:29:14;6.38;;;2.33;;
48613;SDS011;34408;51.426;5.444;2023-04-03T04:31:42;4.70;;;2.47;;
48613;SDS011;34408;51.426;5.444;2023-04-03T04:34:10;4.32;;;2.20;;
48613;SDS011;34408;51.426;5.444;2023-04-03T04:36:39;6.25;;;2.17;;
48613;SDS011;34408;51.426;5.444;2023-04-03T04:39:07;6.18;;;1.98;;
48613;SDS011;34408;51.426;5.444;2023-04-03T04:41:35;6.18;;;2.10;;
48613;SDS011;34408;51.426;5.444;2023-04-03T04:44:04;4.70;;;3.00;;
48613;SDS011;34408;51.426;5.444;2023-04-03T04:46:32;4.88;;;2.03;;
48613;SDS011;34408;51.426;5.444;2023-04-03T04:49:00;5.95;;;2.25;;
48613;SDS011;34408;51.426;5.444;2023-04-03T04:51:28;7.45;;;2.20;;
48613;SDS011;34408;51.426;5.444;2023-04-03T04:54:06;6.07;;;2.20;;
48613;SDS011;34408;51.426;5.444;2023-04-03T04:56:34;5.53;;;2.08;;
48613;SDS011;34408;51.426;5.444;2023-04-03T04:59:02;4.57;;;2.10;;
48613;SDS011;34408;51.426;5.444;2023-04-03T05:01:31;5.22;;;2.38;;
48613;SDS011;34408;51.426;5.444;2023-04-03T05:03:58;6.40;;;2.22;;
48613;SDS011;34408;51.426;5.444;2023-04-03T05:06:26;6.55;;;2.13;;
48613;SDS011;34408;51.426;5.444;2023-04-03T05:08:56;7.13;;;2.20;;
48613;SDS011;34408;51.426;5.444;2023-04-03T05:11:24;4.78;;;2.30;;
48613;SDS011;34408;51.426;5.444;2023-04-03T05:13:51;5.97;;;2.08;;
48613;SDS011;34408;51.426;5.444;2023-04-03T05:16:19;4.10;;;2.47;;
48613;SDS011;34408;51.426;5.444;2023-04-03T05:18:48;5.72;;;1.90;;
48613;SDS011;34408;51.426;5.444;2023-04-03T05:21:16;4.57;;;2.08;;
48613;SDS011;34408;51.426;5.444;2023-04-03T05:23:45;5.40;;;2.05;;
48613;SDS011;34408;51.426;5.444;2023-04-03T05:26:12;6.05;;;2.03;;
48613;SDS011;34408;51.426;5.444;2023-04-03T05:28:40;4.60;;;1.75;;
48613;SDS011;34408;51.426;5.444;2023-04-03T05:31:08;2.92;;;1.67;;
48613;SDS011;34408;51.426;5.444;2023-04-03T05:33:36;5.40;;;1.77;;
48613;SDS011;34408;51.426;5.444;2023-04-03T05:36:06;3.67;;;2.03;;
48613;SDS011;34408;51.426;5.444;2023-04-03T05:38:34;4.25;;;1.70;;
48613;SDS011;34408;51.426;5.444;2023-04-03T05:41:02;3.58;;;1.70;;
48613;SDS011;34408;51.426;5.444;2023-04-03T05:43:30;4.35;;;1.90;;
48613;SDS011;34408;51.426;5.444;2023-04-03T05:45:58;4.60;;;1.90;;
48613;SDS011;34408;51.426;5.444;2023-04-03T05:48:26;4.97;;;1.70;;
48613;SDS011;34408;51.426;5.444;2023-04-03T05:50:54;4.68;;;1.50;;
48613;SDS011;34408;51.426;5.444;2023-04-03T05:53:24;4.25;;;1.80;;
48613;SDS011;34408;51.426;5.444;2023-04-03T05:55:55;8.15;;;1.73;;
48613;SDS011;34408;51.426;5.444;2023-04-03T05:58:23;5.07;;;1.98;;
48613;SDS011;34408;51.426;5.444;2023-04-03T06:00:51;3.97;;;1.70;;
48613;SDS011;34408;51.426;5.444;2023-04-03T06:03:19;5.47;;;1.90;;
48613;SDS011;34408;51.426;5.444;2023-04-03T06:05:47;4.75;;;1.42;;
48613;SDS011;34408;51.426;5.444;2023-04-03T06:08:15;6.00;;;1.80;;
48613;SDS011;34408;51.426;5.444;2023-04-03T06:10:44;4.60;;;1.67;;
48613;SDS011;34408;51.426;5.444;2023-04-03T06:13:11;5.82;;;2.20;;
48613;SDS011;34408;51.426;5.444;2023-04-03T06:15:40;5.55;;;2.22;;
48613;SDS011;34408;51.426;5.444;2023-04-03T06:18:07;6.20;;;2.28;;
48613;SDS011;34408;51.426;5.444;2023-04-03T06:20:35;4.75;;;1.83;;
48613;SDS011;34408;51.426;5.444;2023-04-03T06:23:04;4.90;;;1.50;;
48613;SDS011;34408;51.426;5.444;2023-04-03T06:25:33;4.32;;;2.00;;
48613;SDS011;34408;51.426;5.444;2023-04-03T06:28:02;4.47;;;1.63;;
48613;SDS011;34408;51.426;5.444;2023-04-03T06:30:30;7.15;;;1.65;;
48613;SDS011;34408;51.426;5.444;2023-04-03T06:32:58;7.25;;;2.58;;
48613;SDS011;34408;51.426;5.444;2023-04-03T06:35:26;4.43;;;1.65;;
48613;SDS011;34408;51.426;5.444;2023-04-03T06:37:54;5.45;;;2.10;;
48613;SDS011;34408;51.426;5.444;2023-04-03T06:40:23;3.30;;;1.70;;
48613;SDS011;34408;51.426;5.444;2023-04-03T06:42:52;4.03;;;1.73;;
48613;SDS011;34408;51.426;5.444;2023-04-03T06:45:21;7.10;;;2.00;;
48613;SDS011;34408;51.426;5.444;2023-04-03T06:47:50;5.03;;;1.70;;
48613;SDS011;34408;51.426;5.444;2023-04-03T06:50:19;4.47;;;1.52;;
48613;SDS011;34408;51.426;5.444;2023-04-03T06:52:47;4.15;;;1.88;;
48613;SDS011;34408;51.426;5.444;2023-04-03T06:55:15;4.47;;;1.92;;
48613;SDS011;34408;51.426;5.444;2023-04-03T06:57:42;8.60;;;1.80;;
48613;SDS011;34408;51.426;5.444;2023-04-03T07:00:10;7.07;;;2.35;;
48613;SDS011;34408;51.426;5.444;2023-04-03T07:02:40;4.07;;;2.13;;
48613;SDS011;34408;51.426;5.444;2023-04-03T07:05:08;5.05;;;1.88;;
48613;SDS011;34408;51.426;5.444;2023-04-03T07:07:36;5.47;;;1.77;;
48613;SDS011;34408;51.426;5.444;2023-04-03T07:10:05;4.68;;;1.60;;
48613;SDS011;34408;51.426;5.444;2023-04-03T07:12:34;4.55;;;1.90;;
48613;SDS011;34408;51.426;5.444;2023-04-03T07:15:02;3.72;;;1.80;;
48613;SDS011;34408;51.426;5.444;2023-04-03T07:17:30;7.20;;;1.70;;
48613;SDS011;34408;51.426;5.444;2023-04-03T07:19:59;5.50;;;1.88;;
48613;SDS011;34408;51.426;5.444;2023-04-03T07:22:27;5.57;;;1.95;;
48613;SDS011;34408;51.426;5.444;2023-04-03T07:24:55;6.38;;;1.90;;
48613;SDS011;34408;51.426;5.444;2023-04-03T07:27:25;3.65;;;1.67;;
48613;SDS011;34408;51.426;5.444;2023-04-03T07:29:53;4.78;;;1.88;;
48613;SDS011;34408;51.426;5.444;2023-04-03T07:32:22;3.63;;;1.85;;
48613;SDS011;34408;51.426;5.444;2023-04-03T07:34:50;6.35;;;1.80;;
48613;SDS011;34408;51.426;5.444;2023-04-03T07:37:19;12.20;;;2.15;;
48613;SDS011;34408;51.426;5.444;2023-04-03T07:39:46;4.35;;;1.52;;
48613;SDS011;34408;51.426;5.444;2023-04-03T07:42:14;5.63;;;1.52;;
48613;SDS011;34408;51.426;5.444;2023-04-03T07:44:42;6.88;;;1.70;;
48613;SDS011;34408;51.426;5.444;2023-04-03T07:47:10;4.45;;;1.60;;
48613;SDS011;34408;51.426;5.444;2023-04-03T07:49:40;3.67;;;2.50;;
48613;SDS011;34408;51.426;5.444;2023-04-03T07:52:08;3.35;;;1.92;;
48613;SDS011;34408;51.426;5.444;2023-04-03T07:54:37;7.18;;;2.17;;
48613;SDS011;34408;51.426;5.444;2023-04-03T07:57:05;5.95;;;2.08;;
48613;SDS011;34408;51.426;5.444;2023-04-03T07:59:33;5.13;;;1.65;;
48613;SDS011;34408;51.426;5.444;2023-04-03T08:02:01;5.00;;;1.77;;
48613;SDS011;34408;51.426;5.444;2023-04-03T08:04:31;5.95;;;2.00;;
48613;SDS011;34408;51.426;5.444;2023-04-03T08:06:59;7.07;;;1.83;;
48613;SDS011;34408;51.426;5.444;2023-04-03T08:09:27;8.15;;;2.25;;
48613;SDS011;34408;51.426;5.444;2023-04-03T08:11:56;5.47;;;1.60;;
48613;SDS011;34408;51.426;5.444;2023-04-03T08:14:24;5.35;;;1.60;;
48613;SDS011;34408;51.426;5.444;2023-04-03T08:16:52;5.63;;;2.10;;
48613;SDS011;34408;51.426;5.444;2023-04-03T08:19:20;4.55;;;1.45;;
48613;SDS011;34408;51.426;5.444;2023-04-03T08:21:52;4.68;;;1.60;;
48613;SDS011;34408;51.426;5.444;2023-04-03T08:24:20;4.93;;;1.83;;
48613;SDS011;34408;51.426;5.444;2023-04-03T08:26:48;10.10;;;2.05;;
48613;SDS011;34408;51.426;5.444;2023-04-03T08:29:17;3.53;;;1.40;;
48613;SDS011;34408;51.426;5.444;2023-04-03T08:31:45;4.47;;;1.88;;
48613;SDS011;34408;51.426;5.444;2023-04-03T08:34:12;4.22;;;1.60;;
48613;SDS011;34408;51.426;5.444;2023-04-03T08:36:40;4.28;;;1.90;;
48613;SDS011;34408;51.426;5.444;2023-04-03T08:39:09;5.53;;;1.73;;
48613;SDS011;34408;51.426;5.444;2023-04-03T08:41:37;4.47;;;1.52;;
48613;SDS011;34408;51.426;5.444;2023-04-03T08:44:13;5.03;;;1.55;;
48613;SDS011;34408;51.426;5.444;2023-04-03T08:49:46;4.72;;;1.30;;
48613;SDS011;34408;51.426;5.444;2023-04-03T08:52:18;3.60;;;1.52;;
48613;SDS011;34408;51.426;5.444;2023-04-03T08:54:50;6.57;;;1.88;;
48613;SDS011;34408;51.426;5.444;2023-04-03T08:57:25;4.68;;;2.08;;
48613;SDS011;34408;51.426;5.444;2023-04-03T08:59:58;4.03;;;1.25;;
48613;SDS011;34408;51.426;5.444;2023-04-03T09:02:43;4.53;;;1.77;;
48613;SDS011;34408;51.426;5.444;2023-04-03T09:05:14;5.35;;;2.13;;
48613;SDS011;34408;51.426;5.444;2023-04-03T09:07:44;4.53;;;1.35;;
48613;SDS011;34408;51.426;5.444;2023-04-03T09:10:15;4.03;;;1.40;;
48613;SDS011;34408;51.426;5.444;2023-04-03T09:12:53;3.85;;;1.42;;
48613;SDS011;34408;51.426;5.444;2023-04-03T09:18:05;4.72;;;1.30;;
48613;SDS011;34408;51.426;5.444;2023-04-03T09:20:42;4.10;;;1.38;;
48613;SDS011;34408;51.426;5.444;2023-04-03T09:23:15;3.30;;;1.25;;
48613;SDS011;34408;51.426;5.444;2023-04-03T09:25:47;4.07;;;1.40;;
48613;SDS011;34408;51.426;5.444;2023-04-03T09:28:17;3.30;;;1.35;;
48613;SDS011;34408;51.426;5.444;2023-04-03T09:30:46;2.42;;;1.20;;
48613;SDS011;34408;51.426;5.444;2023-04-03T09:33:14;2.85;;;0.95;;
48613;SDS011;34408;51.426;5.444;2023-04-03T09:35:42;2.72;;;1.08;;
48613;SDS011;34408;51.426;5.444;2023-04-03T09:38:15;2.88;;;1.30;;
48613;SDS011;34408;51.426;5.444;2023-04-03T09:40:48;3.17;;;1.13;;
48613;SDS011;34408;51.426;5.444;2023-04-03T09:43:23;3.58;;;1.23;;
48613;SDS011;34408;51.426;5.444;2023-04-03T09:45:54;1.65;;;0.90;;
48613;SDS011;34408;51.426;5.444;2023-04-03T09:48:24;3.75;;;1.20;;
48613;SDS011;34408;51.426;5.444;2023-04-03T09:50:58;2.60;;;0.90;;
48613;SDS011;34408;51.426;5.444;2023-04-03T09:53:32;3.40;;;1.35;;
48613;SDS011;34408;51.426;5.444;2023-04-03T09:56:02;2.33;;;1.00;;
48613;SDS011;34408;51.426;5.444;2023-04-03T09:58:32;4.72;;;1.50;;
48613;SDS011;34408;51.426;5.444;2023-04-03T10:01:25;3.83;;;1.10;;
48613;SDS011;34408;51.426;5.444;2023-04-03T10:04:02;2.47;;;1.23;;
48613;SDS011;34408;51.426;5.444;2023-04-03T10:06:34;2.17;;;0.95;;
48613;SDS011;34408;51.426;5.444;2023-04-03T10:09:04;6.18;;;1.33;;
48613;SDS011;34408;51.426;5.444;2023-04-03T10:11:33;2.75;;;1.20;;
48613;SDS011;34408;51.426;5.444;2023-04-03T10:14:02;2.17;;;1.25;;
48613;SDS011;34408;51.426;5.444;2023-04-03T10:16:37;3.42;;;1.30;;
48613;SDS011;34408;51.426;5.444;2023-04-03T10:19:14;3.50;;;1.05;;
48613;SDS011;34408;51.426;5.444;2023-04-03T10:21:57;4.00;;;1.73;;
48613;SDS011;34408;51.426;5.444;2023-04-03T10:24:28;1.95;;;0.90;;
48613;SDS011;34408;51.426;5.444;2023-04-03T10:27:04;2.97;;;0.98;;
48613;SDS011;34408;51.426;5.444;2023-04-03T10:29:42;4.95;;;1.02;;
48613;SDS011;34408;51.426;5.444;2023-04-03T10:32:25;5.60;;;1.00;;
48613;SDS011;34408;51.426;5.444;2023-04-03T10:35:07;1.80;;;1.15;;
48613;SDS011;34408;51.426;5.444;2023-04-03T10:37:48;2.10;;;0.93;;
48613;SDS011;34408;51.426;5.444;2023-04-03T10:40:24;3.53;;;0.80;;
48613;SDS011;34408;51.426;5.444;2023-04-03T10:43:00;1.70;;;0.90;;
48613;SDS011;34408;51.426;5.444;2023-04-03T10:45:41;1.35;;;0.70;;
48613;SDS011;34408;51.426;5.444;2023-04-03T10:48:22;2.47;;;1.00;;
48613;SDS011;34408;51.426;5.444;2023-04-03T10:51:03;1.55;;;0.70;;
48613;SDS011;34408;51.426;5.444;2023-04-03T10:53:39;3.13;;;1.00;;
48613;SDS011;34408;51.426;5.444;2023-04-03T10:56:18;1.60;;;0.82;;
48613;SDS011;34408;51.426;5.444;2023-04-03T10:58:53;2.95;;;0.95;;
48613;SDS011;34408;51.426;5.444;2023-04-03T11:01:24;2.42;;;0.95;;
48613;SDS011;34408;51.426;5.444;2023-04-03T11:03:58;3.60;;;1.00;;
48613;SDS011;34408;51.426;5.444;2023-04-03T11:06:30;0.68;;;0.57;;
48613;SDS011;34408;51.426;5.444;2023-04-03T11:09:03;1.88;;;0.93;;
48613;SDS011;34408;51.426;5.444;2023-04-03T11:11:39;2.22;;;0.93;;
48613;SDS011;34408;51.426;5.444;2023-04-03T11:14:11;6.15;;;1.27;;
48613;SDS011;34408;51.426;5.444;2023-04-03T11:16:45;1.85;;;0.82;;
48613;SDS011;34408;51.426;5.444;2023-04-03T11:19:22;1.27;;;0.70;;
48613;SDS011;34408;51.426;5.444;2023-04-03T11:22:01;4.45;;;0.90;;
48613;SDS011;34408;51.426;5.444;2023-04-03T11:24:36;6.13;;;0.82;;
48613;SDS011;34408;51.426;5.444;2023-04-03T11:29:42;2.58;;;0.80;;
48613;SDS011;34408;51.426;5.444;2023-04-03T11:32:20;2.17;;;0.90;;
48613;SDS011;34408;51.426;5.444;2023-04-03T11:35:09;1.40;;;1.00;;
48613;SDS011;34408;51.426;5.444;2023-04-03T11:37:40;2.50;;;1.02;;
48613;SDS011;34408;51.426;5.444;2023-04-03T11:40:18;2.53;;;0.70;;
48613;SDS011;34408;51.426;5.444;2023-04-03T11:42:51;2.13;;;0.90;;
48613;SDS011;34408;51.426;5.444;2023-04-03T11:45:26;3.17;;;0.77;;
48613;SDS011;34408;51.426;5.444;2023-04-03T11:48:01;4.03;;;0.95;;
48613;SDS011;34408;51.426;5.444;2023-04-03T11:50:51;0.85;;;0.63;;
48613;SDS011;34408;51.426;5.444;2023-04-03T11:53:29;3.10;;;0.63;;
48613;SDS011;34408;51.426;5.444;2023-04-03T11:56:02;2.80;;;0.85;;
48613;SDS011;34408;51.426;5.444;2023-04-03T11:58:32;1.65;;;0.90;;
48613;SDS011;34408;51.426;5.444;2023-04-03T12:01:03;1.88;;;0.85;;
48613;SDS011;34408;51.426;5.444;2023-04-03T12:12:33;2.50;;;0.93;;
48613;SDS011;34408;51.426;5.444;2023-04-03T12:15:23;2.22;;;1.20;;
48613;SDS011;34408;51.426;5.444;2023-04-03T12:24:34;1.08;;;0.65;;
48613;SDS011;34408;51.426;5.444;2023-04-03T12:27:04;2.65;;;1.10;;
48613;SDS011;34408;51.426;5.444;2023-04-03T12:29:43;1.90;;;1.05;;
48613;SDS011;34408;51.426;5.444;2023-04-03T12:32:21;1.02;;;0.80;;
48613;SDS011;34408;51.426;5.444;2023-04-03T12:35:04;5.25;;;1.83;;
48613;SDS011;34408;51.426;5.444;2023-04-03T12:37:57;1.98;;;1.05;;
48613;SDS011;34408;51.426;5.444;2023-04-03T12:40:43;1.60;;;0.82;;
48613;SDS011;34408;51.426;5.444;2023-04-03T12:45:58;2.40;;;1.10;;
48613;SDS011;34408;51.426;5.444;2023-04-03T12:48:31;1.77;;;0.80;;
48613;SDS011;34408;51.426;5.444;2023-04-03T12:51:04;1.05;;;0.68;;
48613;SDS011;34408;51.426;5.444;2023-04-03T12:53:34;3.13;;;1.40;;
48613;SDS011;34408;51.426;5.444;2023-04-03T12:56:21;1.83;;;1.02;;
48613;SDS011;34408;51.426;5.444;2023-04-03T12:58:52;1.35;;;0.88;;
48613;SDS011;34408;51.426;5.444;2023-04-03T13:01:24;4.22;;;1.33;;
48613;SDS011;34408;51.426;5.444;2023-04-03T13:03:53;2.15;;;0.80;;
48613;SDS011;34408;51.426;5.444;2023-04-03T13:06:23;2.83;;;1.00;;
48613;SDS011;34408;51.426;5.444;2023-04-03T13:08:54;3.00;;;1.50;;
48613;SDS011;34408;51.426;5.444;2023-04-03T13:11:24;2.13;;;0.63;;
48613;SDS011;34408;51.426;5.444;2023-04-03T13:13:56;2.58;;;1.02;;
48613;SDS011;34408;51.426;5.444;2023-04-03T13:16:25;1.70;;;0.90;;
48613;SDS011;34408;51.426;5.444;2023-04-03T13:18:53;3.10;;;0.95;;
48613;SDS011;34408;51.426;5.444;2023-04-03T13:21:23;2.38;;;1.20;;
48613;SDS011;34408;51.426;5.444;2023-04-03T13:23:54;2.05;;;1.00;;
48613;SDS011;34408;51.426;5.444;2023-04-03T13:26:40;1.65;;;0.98;;
48613;SDS011;34408;51.426;5.444;2023-04-03T13:29:18;2.25;;;1.00;;
48613;SDS011;34408;51.426;5.444;2023-04-03T13:31:56;2.47;;;0.90;;
48613;SDS011;34408;51.426;5.444;2023-04-03T13:34:26;4.05;;;1.00;;
48613;SDS011;34408;51.426;5.444;2023-04-03T13:36:58;5.55;;;1.30;;
48613;SDS011;34408;51.426;5.444;2023-04-03T13:39:30;2.40;;;0.90;;
48613;SDS011;34408;51.426;5.444;2023-04-03T13:41:59;5.43;;;1.00;;
48613;SDS011;34408;51.426;5.444;2023-04-03T13:44:32;3.97;;;1.08;;
48613;SDS011;34408;51.426;5.444;2023-04-03T13:47:14;1.70;;;0.85;;
48613;SDS011;34408;51.426;5.444;2023-04-03T13:49:45;4.32;;;1.40;;
48613;SDS011;34408;51.426;5.444;2023-04-03T13:52:26;2.40;;;0.93;;
48613;SDS011;34408;51.426;5.444;2023-04-03T13:54:58;2.88;;;0.80;;
48613;SDS011;34408;51.426;5.444;2023-04-03T13:57:30;3.30;;;1.27;;
48613;SDS011;34408;51.426;5.444;2023-04-03T14:00:00;2.95;;;1.05;;
48613;SDS011;34408;51.426;5.444;2023-04-03T14:02:47;1.67;;;1.00;;
48613;SDS011;34408;51.426;5.444;2023-04-03T14:05:15;3.00;;;1.42;;
48613;SDS011;34408;51.426;5.444;2023-04-03T14:07:47;4.10;;;1.13;;
48613;SDS011;34408;51.426;5.444;2023-04-03T14:10:15;4.38;;;1.50;;
48613;SDS011;34408;51.426;5.444;2023-04-03T14:12:42;2.50;;;0.95;;
48613;SDS011;34408;51.426;5.444;2023-04-03T14:15:15;4.57;;;1.63;;
48613;SDS011;34408;51.426;5.444;2023-04-03T14:17:45;1.08;;;0.77;;
48613;SDS011;34408;51.426;5.444;2023-04-03T14:20:14;4.18;;;1.23;;
48613;SDS011;34408;51.426;5.444;2023-04-03T14:22:43;4.55;;;1.23;;
48613;SDS011;34408;51.426;5.444;2023-04-03T14:25:11;4.47;;;1.50;;
48613;SDS011;34408;51.426;5.444;2023-04-03T14:27:40;6.07;;;1.50;;
48613;SDS011;34408;51.426;5.444;2023-04-03T14:30:13;4.78;;;1.60;;
48613;SDS011;34408;51.426;5.444;2023-04-03T14:32:43;3.35;;;1.23;;
48613;SDS011;34408;51.426;5.444;2023-04-03T14:35:11;2.88;;;1.35;;
48613;SDS011;34408;51.426;5.444;2023-04-03T14:37:39;1.02;;;0.82;;
48613;SDS011;34408;51.426;5.444;2023-04-03T14:40:07;1.85;;;1.10;;
48613;SDS011;34408;51.426;5.444;2023-04-03T14:42:36;3.92;;;1.48;;
48613;SDS011;34408;51.426;5.444;2023-04-03T14:45:05;4.05;;;1.20;;
48613;SDS011;34408;51.426;5.444;2023-04-03T14:47:39;5.30;;;1.23;;
48613;SDS011;34408;51.426;5.444;2023-04-03T14:50:11;2.63;;;1.35;;
48613;SDS011;34408;51.426;5.444;2023-04-03T14:52:41;3.38;;;1.10;;
48613;SDS011;34408;51.426;5.444;2023-04-03T14:55:12;4.43;;;1.33;;
48613;SDS011;34408;51.426;5.444;2023-04-03T14:57:42;6.22;;;1.08;;
48613;SDS011;34408;51.426;5.444;2023-04-03T15:00:12;3.40;;;1.17;;
48613;SDS011;34408;51.426;5.444;2023-04-03T15:02:43;1.88;;;1.02;;
48613;SDS011;34408;51.426;5.444;2023-04-03T15:05:12;2.78;;;1.40;;
48613;SDS011;34408;51.426;5.444;2023-04-03T15:07:42;3.47;;;1.23;;
48613;SDS011;34408;51.426;5.444;2023-04-03T15:10:16;3.00;;;1.27;;
48613;SDS011;34408;51.426;5.444;2023-04-03T15:12:45;4.00;;;1.85;;
48613;SDS011;34408;51.426;5.444;2023-04-03T15:15:14;5.07;;;1.20;;
48613;SDS011;34408;51.426;5.444;2023-04-03T15:17:45;3.53;;;1.55;;
48613;SDS011;34408;51.426;5.444;2023-04-03T15:20:16;3.25;;;1.10;;
48613;SDS011;34408;51.426;5.444;2023-04-03T15:22:46;4.47;;;1.73;;
48613;SDS011;34408;51.426;5.444;2023-04-03T15:25:14;4.90;;;1.30;;
48613;SDS011;34408;51.426;5.444;2023-04-03T15:27:42;15.82;;;1.50;;
48613;SDS011;34408;51.426;5.444;2023-04-03T15:30:11;5.35;;;1.23;;
48613;SDS011;34408;51.426;5.444;2023-04-03T15:32:42;2.63;;;1.17;;
48613;SDS011;34408;51.426;5.444;2023-04-03T15:35:12;4.55;;;1.48;;
48613;SDS011;34408;51.426;5.444;2023-04-03T15:37:40;5.35;;;1.20;;